KGON/GON METAR and TAF weather

Enter ICAO airport designator
Station Type Date Time Source
KGON METAR 2020/01/19 22:56 UTC NOAA

KGON 192256Z 32011KT 10SM OVC065 03/M06 A2978 RMK AO2 SLP083 T00331056


Station Type Date Time Source
KGON Decoded METAR 2020/01/19 22:56 UTC NOAA

GROTON/NEW LONDON AIRPORT , CT, United States (KGON) 41-20N 72-03W 3M
Jan 19, 2020 - 05:56 PM EST / 2020.01.19 2256 UTC
Wind: from the NW (320 degrees) at 13 MPH (11 KT):0
Visibility: 10 mile(s):0
Sky conditions: overcast
Temperature: 37.9 F (3.3 C)
Dew Point: 21.9 F (-5.6 C)
Relative Humidity: 52%
Pressure (altimeter): 29.78 in. Hg (1008 hPa)
ob: KGON 192256Z 32011KT 10SM OVC065 03/M06 A2978 RMK AO2 SLP083 T00331056
cycle: 23

Station Type Date Time Source
KGON TAF 2020/01/19 20:09 UTC NOAA

TAF
AMD KGON 192006Z 1920/2018 30013G23KT P6SM BKN050
FM200000 30012G21KT P6SM BKN050
FM200800 33011G20KT P6SM FEW050
FM201500 34012G18KT P6SM SKC

Example: see airport list